Time;durP1;ratioP1;P1;durP2;ratioP2;P2;SDS_P1;SDS_P2;PMS_P1;PMS_P2;Temp;Humidity;BMP_temperature;BMP_pressure;BME280_temperature;BME280_humidity;BME280_pressure;Samples;Min_cycle;Max_cycle;Signal;HPM_P1;HPM_P2
2023/03/18 00:02:24;;;;;;;21.35;8.10;;;;;;;7.94;100.00;98331.88;4989591;28;20045;-74
2023/03/18 00:04:50;;;;;;;19.90;7.32;;;;;;;7.75;100.00;98309.19;5015727;28;20498;-74
2023/03/18 00:07:15;;;;;;;14.30;7.60;;;;;;;7.75;100.00;98311.88;5009135;28;20072;-75
2023/03/18 00:09:41;;;;;;;15.13;6.75;;;;;;;7.77;100.00;98323.31;5015452;28;20053;-74
2023/03/18 00:12:07;;;;;;;14.18;7.68;;;;;;;7.77;100.00;98321.44;5011413;28;20026;-74
2023/03/18 00:14:34;;;;;;;16.35;8.52;;;;;;;7.68;100.00;98315.38;4997204;28;20507;-74
2023/03/18 00:17:00;;;;;;;16.30;7.28;;;;;;;7.59;100.00;98303.09;5010035;28;20037;-74
2023/03/18 00:19:25;;;;;;;14.00;6.28;;;;;;;7.71;100.00;98307.94;5014980;28;20022;-74
2023/03/18 00:21:50;;;;;;;13.68;5.75;;;;;;;7.65;100.00;98314.94;4996855;28;20061;-74
2023/03/18 00:24:16;;;;;;;18.45;5.35;;;;;;;7.63;100.00;98317.84;5014368;28;20030;-74
2023/03/18 00:26:42;;;;;;;13.75;5.30;;;;;;;7.62;100.00;98320.72;5002158;28;20034;-74
2023/03/18 00:29:08;;;;;;;10.70;5.18;;;;;;;7.53;100.00;98314.66;5011425;28;20037;-76
2023/03/18 00:31:35;;;;;;;8.50;4.90;;;;;;;7.42;100.00;98312.50;5008543;28;20116;-74
2023/03/18 00:34:00;;;;;;;17.38;4.88;;;;;;;7.48;100.00;98335.94;5000756;28;20034;-75
2023/03/18 00:36:26;;;;;;;10.40;4.70;;;;;;;7.28;100.00;98314.22;4985711;28;20018;-74
2023/03/18 00:38:56;;;;;;;12.48;4.28;;;;;;;7.27;100.00;98311.75;5012895;28;20018;-74
2023/03/18 00:41:35;;;;;;;5.95;3.65;;;;;;;7.46;100.00;98343.38;4990739;28;20084;-74
2023/03/18 00:44:01;;;;;;;;;;;;;;;7.48;100.00;98352.09;5015031;28;20025;-74
2023/03/18 00:46:35;;;;;;;9.13;4.00;;;;;;;7.29;100.00;98336.63;5017925;28;19913;-74
2023/03/18 00:49:03;;;;;;;8.18;3.85;;;;;;;7.29;100.00;98356.28;5004366;28;20026;-74
2023/03/18 00:51:31;;;;;;;10.15;4.30;;;;;;;7.22;100.00;98348.13;5005475;28;20018;-74
2023/03/18 00:53:59;;;;;;;9.40;3.72;;;;;;;7.34;100.00;98350.31;5015552;28;20022;-75
2023/03/18 00:56:27;;;;;;;8.85;3.90;;;;;;;7.37;100.00;98349.94;5000335;28;20033;-75
2023/03/18 00:58:53;;;;;;;8.25;3.70;;;;;;;7.35;100.00;98354.66;5004846;28;20088;-74
2023/03/18 01:01:20;;;;;;;10.73;4.15;;;;;;;7.27;100.00;98361.00;5000726;28;20763;-74
2023/03/18 01:03:48;;;;;;;10.40;4.18;;;;;;;7.21;100.00;98362.63;5014016;28;20072;-74
2023/03/18 01:06:17;;;;;;;7.18;4.10;;;;;;;7.28;100.00;98361.84;5011480;28;20435;-75
2023/03/18 01:08:43;;;;;;;8.20;3.55;;;;;;;7.22;100.00;98353.50;4986855;28;20022;-74
2023/03/18 01:11:09;;;;;;;9.45;4.28;;;;;;;7.12;100.00;98342.25;5005222;28;20030;-74
2023/03/18 01:13:36;;;;;;;10.45;4.30;;;;;;;7.17;100.00;98360.50;4995057;28;21199;-75
2023/03/18 01:16:02;;;;;;;11.90;4.35;;;;;;;7.14;100.00;98356.34;5006544;28;20037;-75
2023/03/18 01:18:29;;;;;;;9.43;4.13;;;;;;;7.14;100.00;98344.75;5006448;28;20097;-74
2023/03/18 01:20:55;;;;;;;11.05;4.43;;;;;;;7.17;100.00;98347.88;5004763;28;20045;-74
2023/03/18 01:23:21;;;;;;;6.68;4.10;;;;;;;7.03;100.00;98335.34;5013729;28;20033;-74
2023/03/18 01:25:46;;;;;;;10.05;4.22;;;;;;;7.15;100.00;98352.63;4989804;28;20416;-74
2023/03/18 01:28:12;;;;;;;10.57;3.88;;;;;;;7.17;100.00;98361.31;5010556;28;20061;-75
2023/03/18 01:30:38;;;;;;;8.27;4.30;;;;;;;7.17;100.00;98361.31;4991544;28;20452;-73
2023/03/18 01:33:06;;;;;;;7.78;4.35;;;;;;;7.08;100.00;98351.75;5009419;28;20064;-74
2023/03/18 01:35:33;;;;;;;15.10;3.88;;;;;;;7.24;100.00;98362.22;5009638;28;20029;-74
2023/03/18 01:37:59;;;;;;;9.10;4.50;;;;;;;7.04;100.00;98331.63;5003063;28;20125;-73
2023/03/18 01:40:25;;;;;;;12.60;4.95;;;;;;;7.14;100.00;98345.56;5011275;28;20101;-74
2023/03/18 01:43:25;;;;;;;11.18;4.47;;;;;;;7.17;100.00;98352.44;5013537;28;20034;-74
2023/03/18 01:45:52;;;;;;;7.55;4.30;;;;;;;7.05;100.00;98344.06;4972732;28;20065;-74
2023/03/18 01:48:23;;;;;;;8.85;4.43;;;;;;;7.04;100.00;98339.69;5011567;28;20438;-74
2023/03/18 01:50:55;;;;;;;15.38;4.93;;;;;;;7.08;100.00;98356.28;5006255;28;20045;-75
2023/03/18 01:53:22;;;;;;;7.70;4.55;;;;;;;6.98;100.00;98353.91;5012198;28;20093;-74
2023/03/18 01:55:49;;;;;;;11.50;5.13;;;;;;;6.85;100.00;98333.09;4992021;28;20054;-74
2023/03/18 01:58:20;;;;;;;9.93;5.45;;;;;;;7.00;100.00;98365.31;4982736;28;20056;-74
2023/03/18 02:00:53;;;;;;;9.13;4.47;;;;;;;6.95;100.00;98351.59;4991392;28;20030;-75
2023/03/18 02:03:20;;;;;;;11.05;5.05;;;;;;;6.93;100.00;98359.84;5031789;22;20064;-77
2023/03/18 02:05:48;;;;;;;10.32;5.40;;;;;;;7.01;100.00;98364.28;5037019;28;20052;-75
2023/03/18 02:08:14;;;;;;;9.00;4.80;;;;;;;6.99;100.00;98356.38;5023608;28;20025;-76
2023/03/18 02:10:39;;;;;;;9.32;4.68;;;;;;;7.00;100.00;98355.38;5027466;28;20064;-76
2023/03/18 02:13:08;;;;;;;11.60;4.82;;;;;;;7.06;100.00;98355.66;5034929;28;20055;-76
2023/03/18 02:15:39;;;;;;;9.60;5.03;;;;;;;7.07;100.00;98360.81;5031039;28;20033;-76
2023/03/18 02:18:18;;;;;;;8.80;4.90;;;;;;;7.04;100.00;98363.88;5017289;28;20151;-76
2023/03/18 02:21:14;;;;;;;9.40;3.83;;;;;;;7.04;100.00;98366.59;5012780;28;20029;-76
2023/03/18 02:23:55;;;;;;;11.95;4.20;;;;;;;6.96;100.00;98370.22;5011482;28;20025;-76
2023/03/18 02:26:53;;;;;;;9.20;3.78;;;;;;;6.92;100.00;98360.06;5023009;28;20029;-76
2023/03/18 02:29:20;;;;;;;8.27;3.83;;;;;;;6.88;100.00;98362.28;5033124;28;20434;-76
2023/03/18 02:31:47;;;;;;;5.88;3.38;;;;;;;6.92;100.00;98362.75;5034331;28;20029;-76
2023/03/18 02:34:14;;;;;;;14.02;4.30;;;;;;;6.65;100.00;98319.41;5016752;28;20017;-75
2023/03/18 02:36:40;;;;;;;6.25;3.80;;;;;;;6.78;100.00;98359.06;5030300;28;20029;-77
2023/03/18 02:39:06;;;;;;;16.63;4.15;;;;;;;6.70;100.00;98359.19;4996929;28;20092;-76
2023/03/18 02:41:34;;;;;;;12.95;4.38;;;;;;;6.67;100.00;98359.56;5014892;28;20131;-76
2023/03/18 02:44:00;;;;;;;11.88;4.53;;;;;;;6.64;100.00;98363.47;5034386;28;20025;-77
2023/03/18 02:46:45;;;;;;;13.13;4.28;;;;;;;6.76;100.00;98364.66;5007533;28;20025;-76
2023/03/18 02:49:10;;;;;;;13.45;4.68;;;;;;;6.59;100.00;98355.97;5032375;28;20056;-76
2023/03/18 02:51:36;;;;;;;13.55;4.47;;;;;;;6.57;100.00;98365.22;5007021;28;20116;-75
2023/03/18 02:54:07;;;;;;;8.15;5.00;;;;;;;6.55;100.00;98370.00;5012384;28;20021;-76
2023/03/18 02:56:33;;;;;;;8.93;4.10;;;;;;;6.50;100.00;98361.66;5033409;28;20423;-76
2023/03/18 02:58:58;;;;;;;13.02;4.35;;;;;;;6.30;100.00;98358.72;5029864;28;20131;-76
2023/03/18 03:01:24;;;;;;;10.05;4.63;;;;;;;6.22;100.00;98351.56;5025982;28;20394;-76
2023/03/18 03:03:50;;;;;;;13.50;4.60;;;;;;;6.15;100.00;98364.91;5014798;28;20040;-76
2023/03/18 03:06:16;;;;;;;13.20;5.47;;;;;;;6.18;100.00;98366.38;5005976;28;20299;-76
2023/03/18 03:08:41;;;;;;;8.82;4.63;;;;;;;6.18;100.00;98387.03;5017446;28;20014;-76
2023/03/18 03:11:07;;;;;;;10.65;4.40;;;;;;;6.15;100.00;98367.59;5014307;28;20068;-76
2023/03/18 03:13:33;;;;;;;11.27;5.25;;;;;;;6.20;100.00;98372.41;5023991;28;20036;-76
2023/03/18 03:15:58;;;;;;;9.23;4.72;;;;;;;6.24;100.00;98387.16;5031205;28;20029;-76
2023/03/18 03:18:25;;;;;;;11.25;4.90;;;;;;;6.15;100.00;98388.25;5032537;28;20029;-76
2023/03/18 03:20:51;;;;;;;9.98;5.20;;;;;;;6.03;100.00;98389.75;5031747;28;20021;-77
2023/03/18 03:23:17;;;;;;;12.90;5.20;;;;;;;5.97;100.00;98390.47;5027238;28;20238;-77
2023/03/18 03:25:43;;;;;;;11.98;4.90;;;;;;;6.01;100.00;98402.53;5019130;28;20120;-76
2023/03/18 03:28:10;;;;;;;8.40;4.55;;;;;;;5.98;100.00;98402.91;5032112;28;20120;-76
2023/03/18 03:30:36;;;;;;;12.02;4.30;;;;;;;5.96;100.00;98388.81;5014819;28;20046;-76
2023/03/18 03:33:02;;;;;;;13.00;5.05;;;;;;;6.03;100.00;98400.50;5032823;28;20030;-76
2023/03/18 03:35:27;;;;;;;12.35;4.80;;;;;;;6.03;100.00;98395.94;5032728;28;20079;-76
2023/03/18 03:37:53;;;;;;;9.45;4.65;;;;;;;6.04;100.00;98404.84;5032136;28;20022;-76
2023/03/18 03:40:19;;;;;;;9.38;5.03;;;;;;;5.96;100.00;98410.28;5007819;28;20030;-76
2023/03/18 03:42:46;;;;;;;9.40;4.95;;;;;;;5.87;100.00;98414.88;5010586;28;20490;-76
2023/03/18 03:45:13;;;;;;;9.05;5.18;;;;;;;5.76;100.00;98416.13;5016449;28;20029;-76
2023/03/18 03:47:39;;;;;;;11.98;5.45;;;;;;;5.65;100.00;98403.16;5020124;28;20398;-76
2023/03/18 03:50:06;;;;;;;9.60;4.97;;;;;;;5.62;100.00;98404.34;5024318;28;20021;-76
2023/03/18 03:52:31;;;;;;;13.60;5.53;;;;;;;5.74;100.00;98428.94;5013729;28;20059;-76
2023/03/18 03:54:59;;;;;;;12.93;5.50;;;;;;;5.74;100.00;98422.69;5032000;28;20062;-76
2023/03/18 03:57:25;;;;;;;10.55;4.65;;;;;;;5.72;100.00;98436.31;5032164;28;20560;-76
2023/03/18 03:59:50;;;;;;;10.98;4.65;;;;;;;5.63;100.00;98442.75;5007920;28;20034;-76
2023/03/18 04:02:16;;;;;;;16.52;4.88;;;;;;;5.45;100.00;98403.69;5028639;28;20120;-77
2023/03/18 04:04:44;;;;;;;10.63;4.88;;;;;;;5.41;100.00;98402.38;5032749;28;20026;-76
2023/03/18 04:07:10;;;;;;;13.07;4.50;;;;;;;5.37;100.00;98390.34;5008024;28;20030;-76
2023/03/18 04:09:36;;;;;;;21.52;5.10;;;;;;;5.45;100.00;98414.41;5031905;28;20095;-76
2023/03/18 04:12:02;;;;;;;10.10;4.05;;;;;;;5.46;100.00;98416.06;5014513;28;20025;-76
2023/03/18 04:14:27;;;;;;;9.52;4.22;;;;;;;5.52;100.00;98425.25;5030265;28;20025;-76
2023/03/18 04:16:56;;;;;;;19.92;4.50;;;;;;;5.44;100.00;98412.72;5018043;28;20436;-76
2023/03/18 04:19:23;;;;;;;14.10;4.55;;;;;;;5.45;100.00;98424.31;5033976;28;20029;-76
2023/03/18 04:21:48;;;;;;;12.65;4.45;;;;;;;5.30;100.00;98402.78;5017348;28;20026;-76
2023/03/18 04:24:14;;;;;;;14.82;5.05;;;;;;;5.38;100.00;98418.81;5034519;28;20036;-76
2023/03/18 04:26:39;;;;;;;10.02;4.53;;;;;;;5.33;100.00;98407.78;5032768;28;20108;-76
2023/03/18 04:29:05;;;;;;;12.40;4.05;;;;;;;5.36;100.00;98409.28;5035326;28;20051;-76
2023/03/18 04:31:31;;;;;;;11.82;3.97;;;;;;;5.18;100.00;98397.00;5035058;28;20068;-76
2023/03/18 04:33:59;;;;;;;12.68;3.60;;;;;;;5.29;100.00;98427.94;5030324;28;20025;-77
2023/03/18 04:36:25;;;;;;;7.80;3.58;;;;;;;5.17;100.00;98418.66;5034924;28;20360;-76
2023/03/18 04:38:50;;;;;;;8.93;4.07;;;;;;;5.12;100.00;98418.34;5032767;28;20035;-76
2023/03/18 04:41:16;;;;;;;8.20;4.45;;;;;;;4.98;100.00;98428.81;5017882;28;20034;-76
2023/03/18 04:43:43;;;;;;;10.82;4.35;;;;;;;4.91;100.00;98432.38;5034070;28;20021;-76
2023/03/18 04:46:09;;;;;;;9.15;4.63;;;;;;;4.87;100.00;98439.09;5017663;28;20022;-76
2023/03/18 04:48:35;;;;;;;7.70;4.57;;;;;;;4.82;100.00;98436.94;5017991;28;20014;-76
2023/03/18 04:51:00;;;;;;;6.72;4.30;;;;;;;4.71;100.00;98421.25;5034407;28;20091;-76
2023/03/18 04:53:26;;;;;;;10.13;4.15;;;;;;;4.63;100.00;98426.66;5033933;28;20537;-75
2023/03/18 04:55:51;;;;;;;10.57;4.43;;;;;;;4.63;100.00;98430.16;5035045;28;20033;-77
2023/03/18 04:58:17;;;;;;;8.13;4.47;;;;;;;4.77;100.00;98442.00;5033493;28;20566;-76
2023/03/18 05:00:42;;;;;;;12.15;4.60;;;;;;;4.64;100.00;98436.34;5034527;28;20040;-76
2023/03/18 05:03:08;;;;;;;8.05;4.72;;;;;;;4.55;100.00;98447.13;5015356;28;20155;-76
2023/03/18 05:05:34;;;;;;;9.27;5.22;;;;;;;4.53;100.00;98448.28;5029939;28;20122;-79
2023/03/18 05:08:00;;;;;;;15.48;4.75;;;;;;;4.42;100.00;98433.44;5013867;28;20086;-78
2023/03/18 05:10:25;;;;;;;11.82;5.25;;;;;;;4.40;100.00;98432.78;5011151;28;20120;-77
2023/03/18 05:12:50;;;;;;;11.43;4.93;;;;;;;4.49;100.00;98445.13;5013774;28;20034;-76
2023/03/18 05:15:16;;;;;;;13.52;3.90;;;;;;;4.40;100.00;98435.44;5011541;28;20068;-77
2023/03/18 05:17:41;;;;;;;8.57;4.55;;;;;;;4.52;100.00;98441.28;5031105;28;20026;-78
2023/03/18 05:20:09;;;;;;;10.18;3.95;;;;;;;4.41;100.00;98429.09;5014772;28;20057;-79
2023/03/18 05:22:34;;;;;;;11.73;3.72;;;;;;;4.41;100.00;98439.00;5025730;28;20155;-78
2023/03/18 05:25:00;;;;;;;7.80;3.58;;;;;;;4.30;100.00;98432.16;5012681;28;20118;-78
2023/03/18 05:27:27;;;;;;;9.60;3.63;;;;;;;4.31;100.00;98431.97;5034098;28;20454;-78
2023/03/18 05:29:52;;;;;;;14.75;2.95;;;;;;;4.17;100.00;98417.47;5013104;28;20044;-78
2023/03/18 05:32:18;;;;;;;10.52;3.25;;;;;;;4.26;100.00;98430.81;5014152;28;20026;-77
2023/03/18 05:34:43;;;;;;;7.75;2.97;;;;;;;4.20;100.00;98439.56;5026812;28;20025;-77
2023/03/18 05:37:11;;;;;;;9.85;3.13;;;;;;;4.14;100.00;98412.47;5017775;28;20036;-77
2023/03/18 05:39:37;;;;;;;9.05;2.88;;;;;;;4.25;100.00;98437.19;5046330;28;20029;-79
2023/03/18 05:42:03;;;;;;;6.57;2.90;;;;;;;4.22;100.00;98437.50;5038547;28;20044;-78
2023/03/18 05:44:30;;;;;;;6.97;3.08;;;;;;;4.19;100.00;98430.66;5037716;28;20014;-78
2023/03/18 05:46:55;;;;;;;5.38;3.03;;;;;;;4.36;100.00;98436.81;5038307;28;20104;-77
2023/03/18 05:49:22;;;;;;;7.68;3.50;;;;;;;4.23;100.00;98410.59;5036424;28;20021;-76
2023/03/18 05:51:48;;;;;;;6.88;3.20;;;;;;;4.27;100.00;98421.78;5056672;28;20028;-77
2023/03/18 05:54:15;;;;;;;6.43;3.30;;;;;;;4.43;100.00;98436.94;5029016;28;20048;-76
2023/03/18 05:56:42;;;;;;;6.63;3.65;;;;;;;4.54;100.00;98423.19;5052092;28;20022;-78
2023/03/18 05:59:08;;;;;;;8.85;3.90;;;;;;;4.63;100.00;98424.81;5036052;28;20063;-75
2023/03/18 06:01:34;;;;;;;8.68;3.85;;;;;;;4.77;100.00;98442.00;5050858;28;20092;-74
2023/03/18 06:04:00;;;;;;;8.52;3.97;;;;;;;4.75;100.00;98436.81;5056586;28;20038;-73
2023/03/18 06:06:26;;;;;;;8.75;3.85;;;;;;;4.86;100.00;98443.63;5049741;28;20033;-73
2023/03/18 06:08:55;;;;;;;7.63;3.80;;;;;;;4.94;100.00;98445.44;5020745;28;20479;-74
2023/03/18 06:11:20;;;;;;;7.60;4.30;;;;;;;4.99;100.00;98445.75;5029938;28;20044;-73
2023/03/18 06:13:46;;;;;;;8.05;4.50;;;;;;;5.10;100.00;98441.81;5022700;28;20045;-73
2023/03/18 06:16:11;;;;;;;12.02;4.82;;;;;;;5.28;100.00;98453.91;5014481;28;20025;-73
2023/03/18 06:18:37;;;;;;;11.73;5.43;;;;;;;5.47;100.00;98438.38;5031123;28;20033;-73
2023/03/18 06:21:03;;;;;;;9.88;4.70;;;;;;;5.65;100.00;98449.63;5016939;28;20026;-73
2023/03/18 06:23:30;;;;;;;13.13;4.55;;;;;;;5.79;100.00;98431.03;5026751;28;21483;-74
2023/03/18 06:25:56;;;;;;;12.32;4.65;;;;;;;5.97;100.00;98436.94;5013396;28;20037;-73
2023/03/18 06:28:21;;;;;;;9.35;4.40;;;;;;;6.33;100.00;98438.94;5013271;28;20104;-74
2023/03/18 06:30:46;;;;;;;10.90;4.80;;;;;;;6.78;100.00;98427.09;5026917;28;20375;-73
2023/03/18 06:33:12;;;;;;;12.50;4.28;;;;;;;7.28;100.00;98437.19;5011252;28;20029;-73
2023/03/18 06:35:38;;;;;;;9.80;4.43;;;;;;;7.66;100.00;98427.00;5031845;28;20043;-74
2023/03/18 06:38:03;;;;;;;11.07;4.30;;;;;;;8.95;100.00;98427.38;5029714;28;20021;-74
2023/03/18 06:40:29;;;;;;;13.18;4.85;;;;;;;10.49;100.00;98425.63;5012489;28;20471;-73
2023/03/18 06:42:54;;;;;;;12.70;4.82;;;;;;;11.50;100.00;98429.53;5029098;28;20103;-74
2023/03/18 06:45:21;;;;;;;14.77;4.20;;;;;;;11.91;100.00;98418.22;5012641;28;20025;-74
2023/03/18 06:47:48;;;;;;;9.70;4.13;;;;;;;12.50;100.00;98424.97;5030781;28;20479;-74
2023/03/18 06:50:14;;;;;;;10.85;4.43;;;;;;;12.41;100.00;98429.03;5027554;28;20024;-74
2023/03/18 06:52:40;;;;;;;14.02;4.80;;;;;;;12.17;100.00;98432.59;5031088;28;20025;-74
2023/03/18 06:55:06;;;;;;;9.85;3.85;;;;;;;12.10;100.00;98440.78;5032887;28;20029;-79
2023/03/18 06:57:31;;;;;;;7.85;3.47;;;;;;;12.36;100.00;98437.00;5007850;28;20116;-73
2023/03/18 06:59:57;;;;;;;7.28;3.53;;;;;;;12.63;100.00;98439.47;5027702;28;20046;-73
2023/03/18 07:02:23;;;;;;;7.10;2.70;;;;;;;13.92;100.00;98426.44;5032367;28;20068;-73
2023/03/18 07:04:49;;;;;;;8.60;3.55;;;;;;;15.17;95.85;98426.22;5028549;28;20437;-73
2023/03/18 07:07:14;;;;;;;6.57;3.40;;;;;;;16.28;80.83;98436.66;5032003;28;20025;-74
2023/03/18 07:09:39;;;;;;;11.75;4.40;;;;;;;16.98;71.04;98427.03;5008246;28;20361;-74
2023/03/18 07:12:05;;;;;;;10.55;4.70;;;;;;;19.04;63.98;98434.84;5031037;28;20029;-73
2023/03/18 07:14:31;;;;;;;7.78;4.82;;;;;;;21.05;54.52;98431.13;5029903;28;20025;-74
2023/03/18 07:16:57;;;;;;;8.57;3.95;;;;;;;20.95;54.18;98437.47;5029387;28;20120;-74
2023/03/18 07:19:22;;;;;;;6.18;2.78;;;;;;;20.96;52.63;98439.13;5014018;28;20044;-74
2023/03/18 07:21:48;;;;;;;8.18;2.83;;;;;;;20.48;51.47;98432.34;5020728;28;20028;-74
2023/03/18 07:24:15;;;;;;;7.97;4.03;;;;;;;20.43;50.70;98421.34;5026402;28;20069;-73
2023/03/18 07:26:40;;;;;;;6.38;3.20;;;;;;;20.43;49.96;98433.16;5027135;28;20022;-74
2023/03/18 07:29:06;;;;;;;6.50;3.70;;;;;;;19.45;52.42;98425.94;5029188;28;20028;-74
2023/03/18 07:31:31;;;;;;;6.40;3.20;;;;;;;19.83;52.11;98426.56;5030471;28;20029;-74
2023/03/18 07:33:56;;;;;;;11.48;3.20;;;;;;;21.14;50.39;98437.72;5030728;28;20021;-74
2023/03/18 07:36:23;;;;;;;11.75;2.92;;;;;;;22.27;47.23;98432.34;5032084;28;20037;-74
2023/03/18 07:38:48;;;;;;;13.30;2.90;;;;;;;23.13;46.16;98446.41;5032494;28;20386;-74
2023/03/18 07:41:13;;;;;;;7.35;3.38;;;;;;;23.11;45.50;98437.59;5025885;28;20021;-74
2023/03/18 07:43:39;;;;;;;8.43;3.58;;;;;;;24.19;43.61;98436.09;5028034;28;20490;-74
2023/03/18 07:46:04;;;;;;;11.32;4.40;;;;;;;25.69;41.37;98430.16;5032099;28;20032;-74
2023/03/18 07:48:30;;;;;;;7.57;4.20;;;;;;;25.78;40.26;98442.13;5029003;28;20021;-74
2023/03/18 07:50:55;;;;;;;11.82;4.20;;;;;;;26.96;38.90;98434.50;5013765;28;20076;-74
2023/03/18 07:53:21;;;;;;;8.80;3.97;;;;;;;27.57;37.21;98434.69;5034144;28;20497;-74
2023/03/18 07:55:46;;;;;;;9.20;3.90;;;;;;;28.25;36.31;98434.25;5030463;28;20040;-75
2023/03/18 07:58:12;;;;;;;14.88;5.38;;;;;;;30.13;34.25;98434.06;5025022;28;20100;-74
2023/03/18 08:00:38;;;;;;;9.80;4.60;;;;;;;30.11;33.32;98426.03;5031710;28;20515;-74
2023/03/18 08:03:04;;;;;;;9.20;5.63;;;;;;;30.28;32.48;98441.81;5029752;22;20021;-60
2023/03/18 08:05:30;;;;;;;10.38;5.18;;;;;;;29.40;33.10;98440.78;5012356;28;20128;-57
2023/03/18 08:07:56;;;;;;;8.85;5.15;;;;;;;29.74;32.82;98438.13;5026596;28;20168;-57
2023/03/18 08:10:21;;;;;;;8.90;4.68;;;;;;;29.39;32.80;98439.13;5017803;28;20071;-57
2023/03/18 08:12:47;;;;;;;8.95;4.53;;;;;;;28.69;32.94;98438.63;5034654;28;20369;-57
2023/03/18 08:15:12;;;;;;;5.00;3.58;;;;;;;30.27;31.47;98429.03;5031973;28;20036;-57
2023/03/18 08:17:38;;;;;;;10.00;2.60;;;;;;;31.44;28.93;98436.25;5030758;28;20104;-56
2023/03/18 08:20:05;;;;;;;5.60;2.45;;;;;;;33.02;29.67;98438.03;5015476;28;20037;-59
2023/03/18 08:22:30;;;;;;;5.75;3.47;;;;;;;33.30;29.45;98444.34;5008957;28;20385;-59
2023/03/18 08:24:57;;;;;;;7.90;2.90;;;;;;;33.11;29.86;98444.25;5020740;28;20032;-60
2023/03/18 08:27:22;;;;;;;7.60;3.03;;;;;;;32.23;29.67;98441.44;5009326;28;20030;-59
2023/03/18 08:29:48;;;;;;;6.57;3.05;;;;;;;31.98;29.56;98449.91;5007137;28;20021;-60
2023/03/18 08:32:19;;;;;;;7.05;2.40;;;;;;;31.58;28.25;98444.25;5007903;28;20025;-62
2023/03/18 08:34:45;;;;;;;5.65;2.70;;;;;;;31.21;28.83;98453.44;5002055;28;20123;-60
2023/03/18 08:37:11;;;;;;;6.68;2.47;;;;;;;30.71;27.86;98442.53;5012095;28;20091;-61
2023/03/18 08:39:38;;;;;;;3.63;1.60;;;;;;;31.86;26.72;98444.34;5008778;28;20529;-60
2023/03/18 08:42:04;;;;;;;2.70;1.60;;;;;;;31.48;27.35;98451.13;5009360;28;20183;-60
2023/03/18 08:44:29;;;;;;;3.00;1.35;;;;;;;32.34;25.62;98439.75;5006154;28;20034;-61
2023/03/18 08:46:56;;;;;;;4.00;1.67;;;;;;;31.94;25.98;98450.97;5010107;28;20029;-60
2023/03/18 08:49:23;;;;;;;3.22;0.98;;;;;;;30.47;26.02;98437.69;5007453;28;20428;-60
2023/03/18 08:51:49;;;;;;;2.97;1.10;;;;;;;29.58;27.03;98451.81;5010232;28;20033;-60
2023/03/18 08:54:15;;;;;;;3.80;1.33;;;;;;;30.15;27.14;98448.47;5028884;28;20033;-60
2023/03/18 08:56:41;;;;;;;3.20;1.00;;;;;;;30.00;27.41;98437.91;5014157;28;20032;-60
2023/03/18 08:59:07;;;;;;;1.92;1.05;;;;;;;29.89;27.27;98440.31;5010199;28;20070;-61
2023/03/18 09:01:33;;;;;;;3.47;0.93;;;;;;;30.91;26.62;98430.47;5012660;28;20048;-61
2023/03/18 09:03:58;;;;;;;5.38;1.10;;;;;;;31.33;26.23;98429.44;5012274;28;20029;-60
2023/03/18 09:06:25;;;;;;;2.03;0.77;;;;;;;31.01;25.65;98429.22;5017116;28;20108;-61
2023/03/18 09:08:50;;;;;;;4.80;1.30;;;;;;;30.65;26.58;98427.97;5011780;28;20546;-60
2023/03/18 09:11:17;;;;;;;2.80;0.95;;;;;;;31.71;26.08;98414.28;5020641;28;20025;-60
2023/03/18 09:13:42;;;;;;;3.55;1.40;;;;;;;31.73;25.39;98420.34;5011345;28;20033;-62
2023/03/18 09:16:09;;;;;;;3.15;1.15;;;;;;;32.02;25.49;98420.06;5012283;28;20156;-61
2023/03/18 09:18:35;;;;;;;3.53;1.30;;;;;;;31.69;26.39;98425.00;5006635;28;20021;-59
2023/03/18 09:21:02;;;;;;;4.78;1.50;;;;;;;34.10;25.06;98421.72;5016898;28;20044;-58
2023/03/18 09:23:27;;;;;;;4.40;1.20;;;;;;;33.28;24.59;98427.06;5008649;28;20033;-59
2023/03/18 09:25:53;;;;;;;4.28;1.00;;;;;;;34.92;24.41;98426.13;5016529;28;20495;-58
2023/03/18 09:28:20;;;;;;;3.28;1.40;;;;;;;35.26;23.53;98424.31;5015289;28;20061;-58
2023/03/18 09:30:45;;;;;;;2.50;1.20;;;;;;;34.56;23.71;98422.66;5014558;28;20053;-58
2023/03/18 09:33:12;;;;;;;4.38;1.50;;;;;;;34.47;24.20;98424.88;5022910;28;20524;-59
2023/03/18 09:35:38;;;;;;;2.20;1.45;;;;;;;35.14;23.83;98418.09;5010363;28;20029;-58
2023/03/18 09:38:05;;;;;;;4.32;1.70;;;;;;;36.13;23.62;98415.97;5011009;28;20029;-58
2023/03/18 09:40:36;;;;;;;3.55;1.40;;;;;;;35.64;23.74;98416.88;5008923;28;20052;-58
2023/03/18 09:43:30;;;;;;;3.67;1.20;;;;;;;37.19;21.42;98411.81;5010755;28;20022;-59
2023/03/18 09:46:10;;;;;;;4.75;1.35;;;;;;;34.06;23.64;98407.63;5029694;28;20098;-59
2023/03/18 09:48:43;;;;;;;7.32;1.27;;;;;;;35.90;22.95;98401.16;5011199;28;20030;-62
2023/03/18 09:51:18;;;;;;;5.90;1.17;;;;;;;36.64;22.47;98394.78;5014737;28;20477;-59
2023/03/18 09:53:51;;;;;;;3.58;1.20;;;;;;;36.07;21.64;98392.13;5027612;28;20116;-60
2023/03/18 09:56:23;;;;;;;1.63;0.90;;;;;;;34.10;23.10;98404.88;5022187;28;20035;-60
2023/03/18 09:59:14;;;;;;;2.58;1.00;;;;;;;34.92;22.97;98389.56;5032333;28;20044;-60
2023/03/18 10:01:42;;;;;;;2.53;0.82;;;;;;;31.57;24.72;98395.91;5008056;28;20025;-60
2023/03/18 10:04:36;;;;;;;2.15;0.90;;;;;;;32.79;24.02;98393.78;5013657;28;20044;-60
2023/03/18 10:07:11;;;;;;;2.47;0.85;;;;;;;35.07;23.59;98385.00;5029258;28;20065;-59
2023/03/18 10:09:46;;;;;;;3.97;0.90;;;;;;;36.91;22.53;98395.44;5013152;28;20021;-59
2023/03/18 10:12:24;;;;;;;3.95;0.82;;;;;;;36.40;22.07;98390.50;5013920;28;20021;-59
2023/03/18 10:15:10;;;;;;;2.78;1.08;;;;;;;37.17;21.83;98373.91;5012221;28;20045;-59
2023/03/18 10:17:44;;;;;;;2.70;0.95;;;;;;;36.36;22.40;98379.16;4988838;28;20065;-59
2023/03/18 10:20:19;;;;;;;3.20;1.15;;;;;;;38.94;20.47;98374.28;5031875;28;20111;-59
2023/03/18 10:23:12;;;;;;;3.20;1.00;;;;;;;35.70;21.79;98377.94;5017575;28;20025;-59
2023/03/18 10:25:50;;;;;;;2.80;0.68;;;;;;;37.84;21.56;98384.84;5015494;28;20029;-60
2023/03/18 10:28:53;;;;;;;4.05;0.88;;;;;;;38.50;20.16;98381.09;5015467;28;20050;-59
2023/03/18 10:31:33;;;;;;;2.15;0.80;;;;;;;33.69;22.39;98382.72;5024977;28;20041;-59
2023/03/18 10:34:05;;;;;;;3.90;0.90;;;;;;;37.11;22.29;98384.78;5022356;28;20116;-59
2023/03/18 10:36:49;;;;;;;2.03;0.80;;;;;;;38.99;21.02;98382.38;5028499;28;20040;-59
2023/03/18 10:39:19;;;;;;;2.08;0.80;;;;;;;40.21;20.16;98380.09;5011773;28;20026;-59
2023/03/18 10:41:48;;;;;;;3.05;0.80;;;;;;;40.45;19.93;98380.38;5015927;28;20588;-60
2023/03/18 10:44:36;;;;;;;2.75;0.93;;;;;;;38.93;19.56;98381.94;5012158;28;20024;-59
2023/03/18 10:47:12;;;;;;;2.15;0.80;;;;;;;39.26;19.68;98381.94;5011869;28;20036;-59
2023/03/18 10:49:53;;;;;;;3.20;1.00;;;;;;;40.13;19.72;98372.81;5028173;28;20055;-59
2023/03/18 10:52:36;;;;;;;3.25;0.80;;;;;;;40.54;19.84;98363.72;5013896;28;20108;-60
2023/03/18 10:55:02;;;;;;;5.70;0.85;;;;;;;41.01;20.27;98364.19;5006966;28;20072;-59
2023/03/18 10:57:29;;;;;;;3.90;0.98;;;;;;;41.50;19.21;98358.44;5013413;28;20072;-60
2023/03/18 10:59:54;;;;;;;3.08;0.80;;;;;;;40.60;19.73;98356.38;5011693;28;20064;-59
2023/03/18 11:02:37;;;;;;;5.20;0.90;;;;;;;35.61;21.51;98352.09;5009912;28;20054;-59
2023/03/18 11:05:17;;;;;;;2.17;0.82;;;;;;;34.67;22.23;98353.44;5020104;28;20056;-59
2023/03/18 11:08:34;;;;;;;2.35;0.80;;;;;;;34.09;23.25;98356.34;5004702;28;20025;-65
2023/03/18 11:11:19;;;;;;;3.70;0.90;;;;;;;32.40;23.85;98357.13;4985704;28;20033;-65
2023/03/18 11:13:48;;;;;;;2.85;0.80;;;;;;;34.77;22.94;98348.34;4998073;28;20037;-63
2023/03/18 11:16:21;;;;;;;2.63;0.98;;;;;;;35.30;22.26;98354.06;5006291;28;20500;-66
2023/03/18 11:18:50;;;;;;;1.05;0.77;;;;;;;36.31;21.38;98342.91;5010442;28;20033;-66
2023/03/18 11:21:16;;;;;;;1.92;0.85;;;;;;;36.54;21.13;98341.91;5034028;28;20439;-66
2023/03/18 11:24:07;;;;;;;4.45;1.10;;;;;;;36.03;21.49;98325.69;5015512;28;20448;-66
2023/03/18 11:26:51;;;;;;;1.77;0.85;;;;;;;34.06;22.48;98348.66;5018805;28;20540;-65
2023/03/18 11:29:22;;;;;;;2.28;1.02;;;;;;;33.98;23.09;98350.50;5015456;28;20025;-64
2023/03/18 11:31:56;;;;;;;2.47;0.93;;;;;;;33.09;23.44;98340.06;5018455;28;20055;-64
2023/03/18 11:34:23;;;;;;;2.28;0.80;;;;;;;34.05;23.38;98344.19;5009539;28;20053;-57
2023/03/18 11:37:03;;;;;;;4.65;1.17;;;;;;;34.40;22.28;98327.25;5035777;28;20338;-57